createdAt,value
2023-04-25T00:01:01.032Z,2.90
2023-04-25T00:06:06.193Z,2.20
2023-04-25T00:11:09.718Z,2.63
2023-04-25T00:16:14.687Z,2.73
2023-04-25T00:21:20.882Z,3.97
2023-04-25T00:26:24.547Z,3.20
2023-04-25T00:31:28.043Z,3.20
2023-04-25T00:36:33.013Z,2.97
2023-04-25T00:41:37.286Z,3.70
2023-04-25T00:46:41.592Z,3.33
2023-04-25T00:51:46.974Z,3.63
2023-04-25T00:56:50.755Z,2.40
2023-04-25T01:01:54.357Z,2.70
2023-04-25T01:06:59.273Z,3.77
2023-04-25T01:12:02.801Z,3.90
2023-04-25T01:17:08.851Z,2.87
2023-04-25T01:22:14.098Z,4.20
2023-04-25T01:27:18.212Z,4.60
2023-04-25T01:32:22.150Z,4.67
2023-04-25T01:37:27.312Z,3.17
2023-04-25T01:42:30.773Z,2.87
2023-04-25T01:47:36.595Z,2.60
2023-04-25T01:52:41.630Z,4.43
2023-04-25T01:57:45.942Z,2.50
2023-04-25T02:02:52.004Z,4.77
2023-04-25T02:08:05.996Z,3.17
2023-04-25T02:13:10.100Z,3.80
2023-04-25T02:18:28.713Z,3.83
2023-04-25T02:23:33.887Z,3.43
2023-04-25T02:28:37.547Z,3.03
2023-04-25T02:33:41.685Z,2.50
2023-04-25T02:38:46.618Z,4.07
2023-04-25T02:43:50.351Z,3.63
2023-04-25T02:48:55.679Z,3.23
2023-04-25T02:54:00.403Z,4.93
2023-04-25T02:59:04.400Z,3.70
2023-04-25T03:04:09.232Z,3.67
2023-04-25T03:09:14.322Z,3.23
2023-04-25T03:14:18.120Z,4.23
2023-04-25T03:19:21.820Z,4.83
2023-04-25T03:24:28.180Z,4.00
2023-04-25T03:29:31.865Z,4.10
2023-04-25T03:34:38.041Z,3.60
2023-04-25T03:39:43.281Z,4.30
2023-04-25T03:44:48.279Z,4.97
2023-04-25T03:49:53.042Z,4.70
2023-04-25T03:55:01.154Z,2.87
2023-04-25T04:00:07.659Z,5.63
2023-04-25T04:05:16.925Z,4.30
2023-04-25T04:10:30.412Z,4.70
2023-04-25T04:15:35.781Z,3.27
2023-04-25T04:20:39.444Z,4.70
2023-04-25T04:25:45.578Z,4.53
2023-04-25T04:31:05.944Z,4.27
2023-04-25T04:36:11.294Z,4.23
2023-04-25T04:41:16.791Z,5.23
2023-04-25T04:46:29.794Z,7.23
2023-04-25T04:52:10.757Z,4.60
2023-04-25T04:57:31.072Z,3.43
2023-04-25T05:03:00.229Z,3.40
2023-04-25T05:08:12.062Z,4.03
2023-04-25T05:13:39.990Z,4.43
2023-04-25T05:18:56.641Z,5.30
2023-04-25T05:24:26.598Z,3.63
2023-04-25T05:29:37.622Z,7.27
2023-04-25T05:34:55.513Z,5.87
2023-04-25T05:40:07.884Z,4.30
2023-04-25T05:45:33.252Z,8.20
2023-04-25T05:50:42.493Z,5.63
2023-04-25T05:56:09.115Z,5.17
2023-04-25T06:01:14.247Z,4.40
2023-04-25T06:06:17.930Z,5.67
2023-04-25T06:11:24.392Z,6.17
2023-04-25T06:16:29.604Z,4.20
2023-04-25T06:21:33.709Z,5.20
2023-04-25T06:26:39.586Z,5.87
2023-04-25T06:32:06.359Z,4.00
2023-04-25T06:37:12.875Z,5.20
2023-04-25T06:42:16.412Z,4.53
2023-04-25T06:47:42.350Z,4.27
2023-04-25T06:52:47.165Z,4.07
2023-04-25T06:57:51.240Z,4.23
2023-04-25T07:03:21.128Z,5.27
2023-04-25T07:08:27.887Z,4.00
2023-04-25T07:13:31.562Z,5.67
2023-04-25T07:18:35.276Z,4.80
2023-04-25T07:23:41.863Z,6.60
2023-04-25T07:28:52.485Z,6.63
2023-04-25T07:33:56.075Z,5.53
2023-04-25T07:39:00.911Z,8.10
2023-04-25T07:44:04.778Z,5.90
2023-04-25T07:49:11.441Z,4.90
2023-04-25T07:54:18.222Z,5.17
2023-04-25T07:59:29.839Z,4.33
2023-04-25T08:04:36.175Z,5.20
2023-04-25T08:09:43.444Z,6.53
2023-04-25T08:14:54.322Z,5.17
2023-04-25T08:19:59.545Z,5.33
2023-04-25T08:25:09.729Z,3.83
2023-04-25T08:30:13.377Z,4.87
2023-04-25T08:35:18.891Z,5.03
2023-04-25T08:40:27.189Z,4.20
2023-04-25T08:45:55.181Z,6.07
2023-04-25T08:51:13.162Z,4.67
2023-04-25T08:56:18.905Z,3.63
2023-04-25T09:01:22.386Z,4.10
2023-04-25T09:06:31.630Z,3.53
2023-04-25T09:11:38.138Z,4.50
2023-04-25T09:17:02.813Z,4.33
2023-04-25T09:22:22.782Z,3.40
2023-04-25T09:27:28.207Z,3.13
2023-04-25T09:32:49.216Z,4.07
2023-04-25T09:37:53.357Z,4.13
2023-04-25T09:43:22.915Z,4.23
2023-04-25T09:48:28.393Z,4.63
2023-04-25T09:53:36.337Z,3.90
2023-04-25T09:59:00.883Z,3.70
2023-04-25T10:04:06.140Z,5.70
2023-04-25T10:09:35.082Z,5.00
2023-04-25T10:14:41.440Z,5.57
2023-04-25T10:19:45.531Z,5.07
2023-04-25T10:24:49.724Z,5.23
2023-04-25T10:30:05.698Z,6.80
2023-04-25T10:35:13.430Z,4.60
2023-04-25T10:40:23.877Z,6.73
2023-04-25T10:45:29.089Z,5.33
2023-04-25T10:50:39.974Z,7.43
2023-04-25T10:55:52.797Z,6.70
2023-04-25T11:00:58.051Z,12.07
2023-04-25T11:06:02.328Z,6.07
2023-04-25T11:11:06.002Z,8.13
2023-04-25T11:16:13.355Z,6.30
2023-04-25T11:21:21.596Z,4.80
2023-04-25T11:26:26.424Z,6.70
2023-04-25T11:31:32.073Z,6.30
2023-04-25T11:36:35.611Z,6.53
2023-04-25T11:41:39.842Z,6.03
2023-04-25T11:46:47.460Z,10.80
2023-04-25T11:51:51.239Z,4.63
2023-04-25T11:56:54.659Z,4.37
2023-04-25T12:02:00.807Z,5.37
2023-04-25T12:07:04.212Z,3.60
2023-04-25T12:12:08.298Z,3.80
2023-04-25T12:17:13.330Z,5.90
2023-04-25T12:22:23.367Z,6.77
2023-04-25T12:27:28.404Z,5.37
2023-04-25T12:32:33.353Z,9.27
2023-04-25T12:37:36.687Z,6.70
2023-04-25T12:42:43.931Z,6.57
2023-04-25T12:47:48.704Z,6.83
2023-04-25T12:52:52.172Z,7.07
2023-04-25T12:57:55.962Z,7.60
2023-04-25T13:03:00.738Z,4.17
2023-04-25T13:08:04.147Z,6.10
2023-04-25T13:13:07.572Z,7.07
2023-04-25T13:18:12.328Z,5.60
2023-04-25T13:23:15.555Z,5.60
2023-04-25T13:28:20.045Z,4.70
2023-04-25T13:33:24.791Z,5.83
2023-04-25T13:38:28.188Z,7.40
2023-04-25T13:43:31.575Z,5.60
2023-04-25T13:48:36.319Z,6.73
2023-04-25T13:53:39.704Z,6.77
2023-04-25T13:58:43.103Z,5.97
2023-04-25T14:03:47.882Z,6.43
2023-04-25T14:08:51.377Z,5.23
2023-04-25T14:13:54.781Z,6.47
2023-04-25T14:19:00.291Z,3.43
2023-04-25T14:24:03.578Z,6.30
2023-04-25T14:29:07.739Z,4.30
2023-04-25T14:34:12.543Z,3.00
2023-04-25T14:39:16.155Z,5.10
2023-04-25T14:44:19.518Z,5.13
2023-04-25T14:49:24.239Z,3.00
2023-04-25T14:54:27.703Z,6.40
2023-04-25T14:59:31.128Z,5.70
2023-04-25T15:04:36.030Z,4.10
2023-04-25T15:09:39.370Z,4.27
2023-04-25T15:14:42.534Z,9.07
2023-04-25T15:19:47.319Z,5.33
2023-04-25T15:24:51.683Z,4.27
2023-04-25T15:29:55.003Z,2.63
2023-04-25T15:34:59.754Z,5.20
2023-04-25T15:40:05.263Z,6.20
2023-04-25T15:45:09.330Z,3.50
2023-04-25T15:50:14.901Z,2.83
2023-04-25T15:55:19.217Z,2.50
2023-04-25T16:00:22.989Z,3.00
2023-04-25T16:05:28.489Z,2.53
2023-04-25T16:10:32.153Z,3.37
2023-04-25T16:15:36.541Z,4.77
2023-04-25T16:20:42.638Z,5.77
2023-04-25T16:25:46.814Z,5.70
2023-04-25T16:30:50.346Z,4.73
2023-04-25T16:35:54.970Z,5.67
2023-04-25T16:40:58.788Z,5.77
2023-04-25T16:46:02.201Z,4.90
2023-04-25T16:51:07.124Z,6.03
2023-04-25T16:56:10.433Z,8.67
2023-04-25T17:01:16.150Z,4.87
2023-04-25T17:06:20.983Z,8.47
2023-04-25T17:11:24.350Z,5.70
2023-04-25T17:16:35.375Z,30.23
2023-04-25T17:21:40.040Z,21.67
2023-04-25T17:26:43.598Z,16.90
2023-04-25T17:31:47.515Z,20.63
2023-04-25T17:36:52.255Z,5.90
2023-04-25T17:41:55.572Z,24.77
2023-04-25T17:46:58.931Z,13.67
2023-04-25T17:52:03.592Z,4.93
2023-04-25T17:57:07.104Z,11.77
2023-04-25T18:02:10.940Z,10.13
2023-04-25T18:07:16.381Z,7.77
2023-04-25T18:12:19.693Z,4.27
2023-04-25T18:17:25.218Z,18.90
2023-04-25T18:22:30.122Z,10.57
2023-04-25T18:27:33.365Z,6.20
2023-04-25T18:32:36.772Z,12.77
2023-04-25T18:37:42.369Z,13.07
2023-04-25T18:42:45.956Z,10.40
2023-04-25T18:47:49.314Z,8.10
2023-04-25T18:52:54.224Z,8.60
2023-04-25T18:57:57.505Z,8.70
2023-04-25T19:03:03.398Z,9.53
2023-04-25T19:08:08.321Z,12.40
2023-04-25T19:13:11.766Z,10.60
2023-04-25T19:18:15.872Z,8.23
2023-04-25T19:23:20.559Z,7.33
2023-04-25T19:28:23.777Z,7.70
2023-04-25T19:33:27.645Z,7.83
2023-04-25T19:38:32.451Z,8.47
2023-04-25T19:43:35.698Z,7.17
2023-04-25T19:48:39.969Z,8.77
2023-04-25T19:53:44.747Z,7.47
2023-04-25T19:58:48.368Z,9.80
2023-04-25T20:03:52.901Z,10.17
2023-04-25T20:08:58.137Z,9.53
2023-04-25T20:14:01.657Z,9.23
2023-04-25T20:19:06.341Z,9.80
2023-04-25T20:24:12.260Z,9.67
2023-04-25T20:29:15.615Z,9.03
2023-04-25T20:34:19.654Z,11.37
2023-04-25T20:39:24.644Z,9.90
2023-04-25T20:44:28.548Z,8.93
2023-04-25T20:49:32.055Z,6.87
2023-04-25T20:54:37.920Z,6.63
2023-04-25T20:59:41.275Z,8.17
2023-04-25T21:04:45.797Z,8.77
2023-04-25T21:09:50.587Z,6.90
2023-04-25T21:14:54.002Z,7.50
2023-04-25T21:19:57.594Z,11.57
2023-04-25T21:25:06.130Z,10.07
2023-04-25T21:30:11.009Z,8.50
2023-04-25T21:35:14.577Z,8.37
2023-04-25T21:40:20.130Z,5.97
2023-04-25T21:45:25.511Z,9.63
2023-04-25T21:50:29.698Z,7.97
2023-04-25T21:55:34.617Z,7.20
2023-04-25T22:00:38.070Z,8.27
2023-04-25T22:05:41.945Z,8.60
2023-04-25T22:10:47.202Z,7.93
2023-04-25T22:15:50.727Z,6.80
2023-04-25T22:20:54.772Z,8.63
2023-04-25T22:25:59.959Z,8.80
2023-04-25T22:31:04.101Z,8.53
2023-04-25T22:36:07.927Z,5.33
2023-04-25T22:41:12.798Z,8.60
2023-04-25T22:46:19.693Z,7.37
2023-04-25T22:51:23.383Z,8.30
2023-04-25T22:56:30.445Z,8.07
2023-04-25T23:01:33.935Z,8.73
2023-04-25T23:06:38.000Z,8.77
2023-04-25T23:11:44.541Z,9.67
2023-04-25T23:16:48.022Z,13.13
2023-04-25T23:21:52.081Z,10.17
2023-04-25T23:26:57.227Z,13.03
2023-04-25T23:32:01.655Z,10.13
2023-04-25T23:37:04.966Z,12.00
2023-04-25T23:42:10.036Z,11.87
2023-04-25T23:47:14.396Z,11.20
2023-04-25T23:52:18.229Z,11.33
2023-04-25T23:57:23.416Z,10.67
